createdAt,value
2023-08-29T00:01:12.153Z,2.80
2023-08-29T00:03:42.514Z,2.83
2023-08-29T00:06:11.334Z,2.80
2023-08-29T00:08:41.852Z,2.75
2023-08-29T00:11:11.912Z,2.55
2023-08-29T00:13:42.537Z,2.50
2023-08-29T00:16:19.309Z,2.70
2023-08-29T00:18:48.838Z,2.70
2023-08-29T00:21:17.963Z,2.80
2023-08-29T00:23:50.421Z,2.58
2023-08-29T00:26:18.871Z,2.70
2023-08-29T00:28:48.958Z,2.60
2023-08-29T00:31:18.443Z,2.55
2023-08-29T00:33:47.244Z,2.80
2023-08-29T00:36:16.940Z,2.65
2023-08-29T00:38:46.353Z,2.90
2023-08-29T00:41:17.500Z,2.70
2023-08-29T00:43:47.269Z,2.55
2023-08-29T00:46:18.185Z,2.60
2023-08-29T00:48:47.175Z,2.63
2023-08-29T00:51:17.245Z,2.80
2023-08-29T00:53:47.198Z,2.88
2023-08-29T00:56:19.744Z,2.85
2023-08-29T00:58:51.627Z,3.00
2023-08-29T01:01:23.377Z,2.83
2023-08-29T01:03:53.880Z,2.67
2023-08-29T01:06:26.425Z,2.90
2023-08-29T01:08:55.032Z,2.70
2023-08-29T01:11:42.278Z,2.70
2023-08-29T01:14:35.076Z,2.70
2023-08-29T01:17:10.443Z,2.45
2023-08-29T01:19:42.570Z,2.40
2023-08-29T01:22:30.643Z,2.33
2023-08-29T01:25:20.824Z,2.80
2023-08-29T01:27:52.005Z,2.80
2023-08-29T01:30:22.139Z,2.88
2023-08-29T01:32:52.791Z,2.65
2023-08-29T01:35:24.164Z,2.70
2023-08-29T01:37:52.965Z,2.90
2023-08-29T01:40:22.932Z,2.50
2023-08-29T01:42:52.683Z,2.60
2023-08-29T01:45:22.022Z,2.85
2023-08-29T01:47:51.756Z,2.65
2023-08-29T01:50:22.733Z,2.65
2023-08-29T01:52:51.487Z,2.58
2023-08-29T01:55:22.951Z,2.60
2023-08-29T01:57:54.769Z,2.55
2023-08-29T02:00:26.772Z,2.95
2023-08-29T02:02:56.708Z,2.50
2023-08-29T02:05:26.505Z,2.30
2023-08-29T02:07:55.081Z,2.35
2023-08-29T02:10:24.965Z,2.40
2023-08-29T02:12:54.093Z,2.60
2023-08-29T02:15:25.106Z,2.40
2023-08-29T02:17:55.252Z,2.65
2023-08-29T02:20:24.730Z,2.55
2023-08-29T02:22:53.925Z,2.72
2023-08-29T02:25:23.535Z,2.70
2023-08-29T02:27:53.653Z,2.97
2023-08-29T02:30:24.055Z,2.65
2023-08-29T02:32:57.459Z,2.60
2023-08-29T02:35:26.618Z,2.67
2023-08-29T02:37:57.548Z,2.60
2023-08-29T02:40:27.323Z,2.60
2023-08-29T02:42:57.913Z,2.45
2023-08-29T02:45:27.383Z,2.67
2023-08-29T02:47:57.892Z,2.90
2023-08-29T02:50:27.231Z,2.80
2023-08-29T02:53:01.421Z,2.80
2023-08-29T02:55:31.340Z,2.53
2023-08-29T02:58:01.847Z,2.80
2023-08-29T03:00:33.510Z,2.60
2023-08-29T03:03:05.234Z,2.78
2023-08-29T03:05:34.807Z,2.90
2023-08-29T03:08:08.402Z,2.50
2023-08-29T03:10:41.553Z,2.80
2023-08-29T03:13:11.732Z,2.53
2023-08-29T03:15:42.564Z,2.78
2023-08-29T03:18:13.393Z,2.60
2023-08-29T03:20:44.950Z,2.60
2023-08-29T03:23:15.548Z,2.55
2023-08-29T03:25:45.647Z,2.65
2023-08-29T03:28:15.073Z,2.60
2023-08-29T03:30:45.813Z,2.45
2023-08-29T03:33:17.070Z,2.63
2023-08-29T03:35:46.872Z,2.83
2023-08-29T03:38:16.750Z,2.75
2023-08-29T03:40:45.752Z,2.60
2023-08-29T03:43:15.328Z,2.50
2023-08-29T03:45:46.201Z,2.70
2023-08-29T03:48:23.991Z,2.90
2023-08-29T03:51:09.007Z,2.50
2023-08-29T03:53:41.986Z,2.40
2023-08-29T03:56:13.587Z,2.58
2023-08-29T03:58:44.824Z,2.53
2023-08-29T04:01:15.175Z,2.72
2023-08-29T04:04:06.040Z,2.50
2023-08-29T04:06:39.679Z,2.60
2023-08-29T04:09:17.625Z,2.40
2023-08-29T04:11:47.196Z,2.50
2023-08-29T04:14:18.223Z,2.53
2023-08-29T04:16:47.093Z,2.33
2023-08-29T04:19:23.930Z,2.30
2023-08-29T04:21:53.670Z,2.67
2023-08-29T04:24:25.712Z,2.55
2023-08-29T04:26:55.561Z,2.50
2023-08-29T04:29:29.098Z,2.40
2023-08-29T04:32:00.109Z,2.65
2023-08-29T04:34:38.997Z,2.42
2023-08-29T04:37:19.646Z,2.50
2023-08-29T04:39:51.064Z,2.50
2023-08-29T04:42:22.802Z,2.30
2023-08-29T04:44:53.156Z,2.30
2023-08-29T04:47:23.423Z,2.30
2023-08-29T04:49:53.402Z,2.30
2023-08-29T04:52:23.296Z,2.60
2023-08-29T04:54:54.878Z,2.55
2023-08-29T04:57:26.006Z,2.40
2023-08-29T05:00:03.221Z,2.50
2023-08-29T05:02:50.255Z,2.50
2023-08-29T05:05:22.930Z,2.50
2023-08-29T05:07:54.367Z,2.40
2023-08-29T05:10:28.975Z,2.45
2023-08-29T05:12:58.814Z,2.55
2023-08-29T05:15:31.379Z,2.65
2023-08-29T05:18:07.080Z,2.38
2023-08-29T05:20:45.490Z,2.20
2023-08-29T05:23:17.287Z,2.33
2023-08-29T05:25:47.786Z,2.22
2023-08-29T05:28:20.620Z,2.30
2023-08-29T05:30:53.228Z,2.30
2023-08-29T05:33:23.317Z,2.42
2023-08-29T05:35:58.808Z,2.05
2023-08-29T05:38:30.487Z,2.20
2023-08-29T05:41:04.212Z,2.30
2023-08-29T05:43:54.200Z,2.22
2023-08-29T05:46:25.323Z,2.30
2023-08-29T05:48:55.371Z,2.50
2023-08-29T05:51:53.668Z,2.30
2023-08-29T05:54:23.615Z,2.10
2023-08-29T05:56:54.960Z,2.38
2023-08-29T05:59:29.948Z,2.42
2023-08-29T06:02:02.993Z,2.00
2023-08-29T06:04:35.154Z,2.42
2023-08-29T06:07:05.164Z,2.60
2023-08-29T06:09:47.229Z,2.20
2023-08-29T06:12:18.325Z,2.10
2023-08-29T06:14:54.648Z,2.45
2023-08-29T06:17:24.260Z,2.10
2023-08-29T06:19:56.843Z,2.15
2023-08-29T06:22:30.832Z,2.22
2023-08-29T06:25:02.492Z,2.40
2023-08-29T06:27:31.326Z,2.50
2023-08-29T06:30:02.541Z,2.30
2023-08-29T06:32:31.450Z,2.10
2023-08-29T06:35:00.934Z,2.13
2023-08-29T06:37:31.186Z,2.55
2023-08-29T06:40:13.583Z,2.20
2023-08-29T06:42:43.386Z,2.63
2023-08-29T06:45:12.930Z,2.10
2023-08-29T06:47:42.865Z,2.63
2023-08-29T06:50:14.558Z,2.40
2023-08-29T06:52:45.316Z,2.33
2023-08-29T06:55:15.263Z,2.50
2023-08-29T06:57:46.157Z,2.40
2023-08-29T07:00:18.705Z,2.42
2023-08-29T07:02:47.597Z,2.53
2023-08-29T07:05:21.061Z,2.25
2023-08-29T07:07:51.055Z,2.28
2023-08-29T07:10:23.199Z,2.30
2023-08-29T07:12:53.961Z,2.40
2023-08-29T07:15:25.343Z,2.65
2023-08-29T07:17:55.596Z,2.28
2023-08-29T07:20:26.131Z,2.28
2023-08-29T07:22:56.826Z,2.58
2023-08-29T07:25:46.767Z,2.30
2023-08-29T07:28:17.123Z,2.22
2023-08-29T07:30:52.911Z,2.67
2023-08-29T07:33:27.388Z,2.53
2023-08-29T07:36:03.125Z,2.47
2023-08-29T07:38:34.149Z,2.38
2023-08-29T07:41:06.137Z,2.78
2023-08-29T07:43:42.326Z,2.60
2023-08-29T07:46:17.030Z,2.60
2023-08-29T07:48:46.891Z,2.50
2023-08-29T07:51:17.047Z,2.33
2023-08-29T07:53:46.181Z,2.33
2023-08-29T07:56:27.316Z,2.70
2023-08-29T07:58:58.244Z,2.40
2023-08-29T08:01:27.637Z,2.30
2023-08-29T08:03:59.652Z,2.50
2023-08-29T08:06:34.843Z,2.72
2023-08-29T08:09:06.378Z,2.55
2023-08-29T08:11:39.985Z,2.60
2023-08-29T08:14:22.902Z,2.80
2023-08-29T08:17:25.664Z,2.75
2023-08-29T08:20:02.123Z,2.28
2023-08-29T08:22:42.923Z,2.42
2023-08-29T08:25:14.285Z,2.47
2023-08-29T08:27:45.580Z,2.58
2023-08-29T08:30:15.963Z,2.60
2023-08-29T08:32:50.256Z,2.60
2023-08-29T08:35:19.816Z,2.58
2023-08-29T08:37:49.576Z,2.55
2023-08-29T08:40:24.477Z,2.70
2023-08-29T08:42:56.435Z,2.35
2023-08-29T08:45:48.051Z,2.40
2023-08-29T08:48:32.633Z,2.30
2023-08-29T08:51:07.969Z,2.35
2023-08-29T08:53:42.637Z,2.42
2023-08-29T08:56:26.592Z,2.47
2023-08-29T08:58:56.730Z,2.65
2023-08-29T09:01:41.432Z,2.30
2023-08-29T09:04:15.267Z,2.50
2023-08-29T09:06:46.874Z,2.80
2023-08-29T09:09:27.045Z,2.45
2023-08-29T09:11:59.890Z,2.50
2023-08-29T09:14:30.027Z,2.25
2023-08-29T09:17:23.682Z,2.22
2023-08-29T09:20:19.500Z,2.50
2023-08-29T09:22:53.806Z,2.42
2023-08-29T09:25:28.928Z,2.47
2023-08-29T09:28:00.350Z,2.20
2023-08-29T09:30:35.542Z,2.35
2023-08-29T09:33:13.305Z,2.38
2023-08-29T09:35:50.370Z,2.65
2023-08-29T09:38:20.924Z,2.42
2023-08-29T09:40:59.443Z,2.60
2023-08-29T09:43:33.106Z,2.58
2023-08-29T09:46:24.926Z,2.70
2023-08-29T09:49:22.887Z,2.47
2023-08-29T09:54:26.420Z,1.95
2023-08-29T09:57:04.883Z,2.45
2023-08-29T09:59:39.028Z,2.30
2023-08-29T10:02:15.762Z,2.28
2023-08-29T10:05:02.847Z,2.58
2023-08-29T10:07:50.822Z,2.35
2023-08-29T10:10:23.261Z,2.60
2023-08-29T10:13:01.461Z,2.85
2023-08-29T10:15:31.515Z,2.72
2023-08-29T10:18:06.623Z,2.80
2023-08-29T10:20:49.934Z,2.55
2023-08-29T10:23:22.850Z,2.50
2023-08-29T10:26:04.006Z,2.63
2023-08-29T10:28:36.060Z,2.70
2023-08-29T10:32:16.634Z,2.63
2023-08-29T10:35:14.295Z,2.33
2023-08-29T10:38:10.480Z,2.40
2023-08-29T10:41:15.233Z,2.50
2023-08-29T10:47:30.701Z,2.78
2023-08-29T10:50:13.118Z,2.78
2023-08-29T10:53:02.453Z,2.53
2023-08-29T10:55:46.111Z,2.38
2023-08-29T10:58:57.443Z,2.63
2023-08-29T11:01:35.328Z,2.63
2023-08-29T11:04:25.234Z,2.83
2023-08-29T11:07:04.023Z,2.80
2023-08-29T11:09:34.575Z,2.72
2023-08-29T11:12:31.653Z,2.40
2023-08-29T11:15:17.782Z,2.60
2023-08-29T11:18:35.384Z,2.70
2023-08-29T11:21:19.586Z,2.50
2023-08-29T11:24:13.778Z,2.60
2023-08-29T11:27:11.210Z,2.80
2023-08-29T11:30:05.834Z,2.80
2023-08-29T11:33:02.388Z,2.95
2023-08-29T11:36:13.608Z,2.83
2023-08-29T11:39:22.615Z,3.03
2023-08-29T11:42:10.847Z,2.88
2023-08-29T11:45:47.706Z,3.20
2023-08-29T11:49:43.743Z,2.70
2023-08-29T11:53:18.924Z,2.80
2023-08-29T11:55:59.160Z,3.30
2023-08-29T11:58:35.504Z,3.60
2023-08-29T12:01:25.234Z,3.35
2023-08-29T12:04:00.219Z,3.30
2023-08-29T12:06:31.298Z,2.90
2023-08-29T12:09:01.767Z,3.38
2023-08-29T12:11:43.777Z,3.42
2023-08-29T12:14:15.277Z,3.33
2023-08-29T12:16:58.343Z,3.13
2023-08-29T12:19:41.447Z,3.42
2023-08-29T12:22:23.013Z,3.58
2023-08-29T12:25:06.383Z,4.23
2023-08-29T12:27:52.427Z,3.45
2023-08-29T12:30:34.378Z,3.00
2023-08-29T12:33:10.364Z,2.88
2023-08-29T12:35:45.036Z,3.60
2023-08-29T12:38:21.764Z,3.20
2023-08-29T12:40:53.514Z,3.50
2023-08-29T12:43:24.433Z,3.30
2023-08-29T12:46:00.017Z,3.38
2023-08-29T12:48:31.928Z,3.25
2023-08-29T12:51:04.605Z,3.10
2023-08-29T12:53:46.782Z,3.50
2023-08-29T12:56:23.276Z,3.50
2023-08-29T12:59:23.021Z,3.80
2023-08-29T13:02:06.833Z,3.20
2023-08-29T13:04:41.384Z,2.90
2023-08-29T13:07:22.350Z,3.38
2023-08-29T13:09:55.701Z,3.50
2023-08-29T13:12:42.057Z,3.15
2023-08-29T13:15:50.672Z,3.30
2023-08-29T13:18:33.485Z,2.92
2023-08-29T13:21:17.947Z,3.10
2023-08-29T13:24:06.633Z,3.38
2023-08-29T13:26:54.334Z,3.38
2023-08-29T13:29:33.586Z,3.08
2023-08-29T13:32:12.502Z,3.20
2023-08-29T13:35:35.641Z,2.95
2023-08-29T13:38:23.456Z,2.90
2023-08-29T13:40:53.408Z,3.33
2023-08-29T13:43:25.897Z,3.72
2023-08-29T13:45:55.824Z,4.05
2023-08-29T13:48:31.461Z,3.40
2023-08-29T13:51:03.064Z,3.72
2023-08-29T13:53:32.332Z,3.40
2023-08-29T13:56:03.158Z,3.30
2023-08-29T13:58:43.674Z,3.35
2023-08-29T14:05:10.299Z,3.20
2023-08-29T14:08:03.677Z,3.33
2023-08-29T14:10:43.326Z,3.38
2023-08-29T14:14:02.070Z,3.30
2023-08-29T14:17:27.026Z,3.00
2023-08-29T14:20:57.785Z,3.45
2023-08-29T14:24:27.720Z,3.97
2023-08-29T14:27:49.861Z,3.25
2023-08-29T14:31:29.849Z,3.13
2023-08-29T14:34:51.594Z,3.42
2023-08-29T14:38:06.772Z,3.80
2023-08-29T14:41:02.296Z,3.45
2023-08-29T14:43:52.621Z,3.10
2023-08-29T14:46:27.459Z,3.33
2023-08-29T14:49:35.215Z,3.28
2023-08-29T14:52:32.354Z,2.97
2023-08-29T14:55:14.841Z,3.40
2023-08-29T14:57:54.852Z,3.30
2023-08-29T15:00:50.912Z,2.90
2023-08-29T15:03:23.290Z,2.92
2023-08-29T15:06:48.839Z,3.10
2023-08-29T15:09:49.755Z,3.15
2023-08-29T15:16:24.130Z,2.55
2023-08-29T15:19:41.415Z,2.60
2023-08-29T15:23:12.670Z,3.03
2023-08-29T15:26:58.418Z,2.70
2023-08-29T15:31:15.932Z,2.80
2023-08-29T15:38:03.425Z,2.30
2023-08-29T15:41:20.233Z,2.70
2023-08-29T15:44:03.675Z,2.83
2023-08-29T15:51:15.673Z,2.47
2023-08-29T15:54:11.283Z,2.47
2023-08-29T15:56:51.389Z,2.55
2023-08-29T15:59:29.448Z,2.72
2023-08-29T16:03:00.502Z,2.42
2023-08-29T16:05:48.323Z,2.45
2023-08-29T16:08:55.890Z,2.38
2023-08-29T16:12:20.569Z,2.13
2023-08-29T16:19:25.489Z,2.50
2023-08-29T16:22:04.461Z,2.70
2023-08-29T16:29:08.958Z,2.90
2023-08-29T16:33:02.094Z,2.53
2023-08-29T16:36:13.989Z,2.50
2023-08-29T16:39:22.486Z,2.53
2023-08-29T16:42:14.186Z,2.72
2023-08-29T16:45:43.504Z,2.78
2023-08-29T16:48:23.385Z,2.88
2023-08-29T16:55:10.394Z,2.45
2023-08-29T16:57:56.539Z,2.60
2023-08-29T17:04:37.727Z,2.50
2023-08-29T17:07:48.727Z,2.45
2023-08-29T17:12:34.094Z,2.40
2023-08-29T17:52:53.205Z,3.20
2023-08-29T17:55:43.068Z,4.10
2023-08-29T17:59:21.242Z,4.03
2023-08-29T18:02:21.190Z,3.67
2023-08-29T18:05:13.920Z,3.60
2023-08-29T18:07:55.657Z,3.85
2023-08-29T18:17:14.869Z,3.95
2023-08-29T18:20:22.881Z,3.80
2023-08-29T18:23:02.524Z,3.60
2023-08-29T18:26:14.146Z,3.53
2023-08-29T18:34:11.417Z,3.13
2023-08-29T18:37:19.155Z,3.50
2023-08-29T18:40:18.641Z,3.78
2023-08-29T18:43:19.383Z,3.60
2023-08-29T18:46:34.447Z,3.42
2023-08-29T20:50:27.064Z,3.50
2023-08-29T20:53:12.160Z,3.22
2023-08-29T20:55:48.824Z,3.35
2023-08-29T20:58:30.582Z,3.35
2023-08-29T21:01:10.947Z,3.27
2023-08-29T21:03:46.119Z,3.50
2023-08-29T21:06:23.764Z,3.45
2023-08-29T21:09:08.761Z,3.25
2023-08-29T21:11:45.918Z,3.13
2023-08-29T21:14:32.292Z,3.00
2023-08-29T21:17:12.620Z,2.95
2023-08-29T21:20:02.317Z,3.00
2023-08-29T21:28:53.811Z,3.30
2023-08-29T21:51:35.866Z,3.17
2023-08-29T22:02:20.018Z,3.13
2023-08-29T22:05:32.502Z,3.40
2023-08-29T22:08:32.558Z,3.30
2023-08-29T22:11:58.621Z,3.30
2023-08-29T22:15:51.500Z,3.10
2023-08-29T22:18:42.672Z,3.00
2023-08-29T22:27:01.223Z,2.92
2023-08-29T22:30:27.788Z,3.33
2023-08-29T22:37:27.970Z,2.90
2023-08-29T22:40:46.569Z,2.78
2023-08-29T22:49:42.338Z,2.40
